Weather observations for the past three days for
Cherokee, Cherokee Municipal Airport
Imperial (Metric)
Date Time (cdt) Wind (mph) Vis. (mi.) Weather Sky Cond. Temperature (ºF) Relative Humidity Wind Chill (°F) Heat Index (°F) Pressure Precipitation (in)
Air Dwpt 6 hour altimeter (in) sea level (mb) 1 hr 3 hr 6 hr
Max. Min.
09 06:15 S 6 10.00 Fair CLR 42.8 32 66% 40 29.7 0.0
09 05:55 S 6 10.00 Fair CLR 41 33.8 76% 38 29.69 0.0
09 05:35 S 7 10.00 Fair CLR 41 33.8 76% 37 29.69 0.0
09 05:15 S 6 10.00 Fair CLR 39.2 32 75% 36 29.69 0.0
09 04:55 S 3 10.00 Fair CLR 41 33.8 76% 29.69 0.0
09 04:35 S 5 10.00 Fair CLR 39.2 35.6 87% 36 29.69 0.0
09 04:15 SW 3 10.00 Fair CLR 39.2 33.8 81% 29.69 0.0
09 03:55 S 3 10.00 Fair CLR 39.2 33.8 81% 29.69 0.0
09 03:35 S 3 10.00 Fair CLR 41 33.8 76% 29.69 0.0
09 03:15 S 2 10.00 Fair CLR 41 35.6 81% 29.69 0.0
09 02:55 SW 5 10.00 Fair CLR 39.2 32 75% 36 29.7 0.0
09 02:35 SE 3 10.00 Fair CLR 41 33.8 76% 29.7 0.0
09 02:15 SW 5 10.00 Fair CLR 41 32 70% 38 29.71 0.0
09 01:55 S 1 10.00 Fair CLR 42.8 32 66% 29.72 0.0
09 01:35 SW 3 10.00 Fair CLR 44.6 32 61% 29.72 0.0
09 01:15 S 3 10.00 Fair CLR 44.6 32 61% 29.73 0.0
09 00:55 S 3 10.00 Fair CLR 44.6 32 74.8 43.3 61% 29.73 0.0
09 00:35 Calm 10.00 Fair CLR 44.6 32 61% 29.73 0.0
09 00:15 NE 1 10.00 Fair CLR 48.2 33.8 58% 29.73 0.0
08 23:56 NE 2 10.00 Fair CLR 53.6 32 44% 29.73 0.0
08 23:35 NE 3 10.00 Fair CLR 53.6 32 44% 29.73 0.0
08 23:15 N 3 10.00 Fair CLR 55.4 32 41% 29.73 0.0
08 22:55 N 5 10.00 Fair CLR 57.2 32 39% 29.73 0.0
08 22:35 N 6 10.00 Fair CLR 59 33.8 39% 29.72 0.0
08 22:15 N 7 10.00 Fair CLR 60.8 33.8 36% 29.71 0.0
08 21:55 N 9 10.00 Fair CLR 62.6 35.6 37% 29.7 0.0
08 21:35 NW 9 10.00 Fair CLR 60.8 37.4 42% 29.69 0.0
08 21:15 NW 3 10.00 Fair CLR 62.6 35.6 37% 29.67 0.0
08 20:55 NW 3 10.00 A Few Clouds FEW110 64.4 35.6 34% 29.66 0.0
08 20:35 N 8 10.00 Partly Cloudy SCT110 68 35.6 30% 29.66 0.0
08 20:15 NW 9 10.00 Partly Cloudy SCT110 69.8 33.8 27% 29.65 0.0
08 19:35 W 9 10.00 A Few Clouds FEW100 FEW120 73.4 32 22% 29.64 0.0
08 19:15 W 7 10.00 A Few Clouds FEW100 FEW120 71.6 30.2 22% 29.64 0.0
08 18:55 NW 12 G 23 10.00 Fair CLR 73.4 28.4 77.7 71.8 19% 29.64 0.0
08 18:35 NW 10 G 17 10.00 Fair CLR 75.2 30.2 19% 76 29.64 0.0
08 17:55 NW 14 G 24 10.00 Fair CLR 75.2 32 21% 76 29.64 0.0
08 17:15 W 18 G 24 10.00 A Few Clouds FEW110 77 32 19% 77 29.64 0.0
08 16:55 W 12 G 23 10.00 Fair CLR 77 33.8 21% 77 29.64 0.0
08 16:35 W 15 G 20 10.00 A Few Clouds FEW120 77 33.8 21% 77 29.64 0.0
08 16:16 W 10 G 18 10.00 Partly Cloudy SCT110 75.2 32 21% 76 29.65 0.0
08 15:55 W 13 G 18 10.00 Mostly Cloudy BKN110 77 33.8 21% 77 29.65 0.0
08 15:35 W 12 G 17 10.00 Mostly Cloudy BKN110 73.4 35.6 25% 29.66 0.0
08 15:15 W 14 10.00 Mostly Cloudy BKN110 73.4 35.6 25% 29.68 0.0
08 14:55 NW 7 10.00 Mostly Cloudy BKN100 73.4 33.8 23% 29.69 0.0
08 14:35 SW 14 10.00 Mostly Cloudy BKN100 73.4 32 22% 29.7 0.0
08 14:15 W 8 10.00 Mostly Cloudy BKN100 75.2 35.6 24% 76 29.7 0.0
08 13:55 W 7 G 20 10.00 Mostly Cloudy BKN100 BKN120 73.4 32 22% 29.71 0.0
08 13:35 Vrbl 3 G 20 10.00 Partly Cloudy SCT100 73.4 32 22% 29.72 0.0
08 13:15 SW 13 G 21 10.00 Partly Cloudy SCT110 73.4 32 22% 29.73 0.0
08 12:36 NW 13 G 17 10.00 Fair CLR 71.6 30.2 22% 29.74 0.0
08 12:15 NW 8 10.00 Fair CLR 71.6 32 23% 29.76 0.0
08 11:55 W 8 10.00 Fair CLR 69.8 30.2 23% 29.76 0.0
08 11:35 SW 9 G 16 10.00 Fair CLR 69.8 30.2 23% 29.77 0.0
08 11:15 W 6 10.00 Fair CLR 68 28.4 23% 29.77 0.0
08 10:55 W 5 10.00 Fair CLR 68 30.2 24% 29.78 0.0
08 10:35 SW 7 10.00 Fair CLR 68 28.4 23% 29.78 0.0
08 10:15 SW 10 10.00 Fair CLR 66.2 30.2 26% 29.79 0.0
08 09:55 W 7 10.00 Fair CLR 64.4 30.2 28% 29.79 0.0
08 09:35 W 5 10.00 Fair CLR 62.6 33.8 34% 29.8 0.0
08 09:15 Vrbl 2 10.00 Fair CLR 57.2 35.6 44% 29.8 0.0
08 08:35 Vrbl 1 10.00 Fair CLR 51.8 35.6 54% 29.81 0.0
08 08:15 S 2 10.00 Fair CLR 48.2 35.6 62% 29.81 0.0
08 07:55 Calm 10.00 Fair CLR 44.6 35.6 71% 29.82 0.0
08 07:35 Calm 9.00 Fair CLR 41 35.6 81% 29.82 0.0
08 07:15 S 1 10.00 Fair CLR 39.2 35.6 87% 29.82 0.0
08 06:55 SW 1 10.00 Fair CLR 37.4 33.8 41.5 34.7 87% 29.81 0.0
08 06:35 SW 1 10.00 Fair CLR 37.4 32 81% 29.8 0.0
08 06:15 NE 2 10.00 Fair CLR 37.4 32 81% 29.8 0.0
08 05:55 Calm 10.00 Fair CLR 37.4 32 81% 29.8 0.0
08 05:35 N 2 10.00 Fair CLR 37.4 30.2 75% 29.8 0.0
08 05:15 Calm 10.00 Fair CLR 37.4 30.2 75% 29.81 0.0
08 04:55 SW 1 10.00 Fair CLR 37.4 30.2 75% 29.81 0.0
08 04:35 SW 1 10.00 Fair CLR 35.6 32 87% 29.81 0.0
08 04:15 SW 2 10.00 Fair CLR 37.4 30.2 75% 29.81 0.0
08 03:55 Calm 10.00 Fair CLR 35.6 32 87% 29.81 0.0
08 03:35 N 1 8.00 Fair CLR 37.4 32 81% 29.82 0.0
08 03:15 Calm 9.00 Fair CLR 35.6 32 87% 29.82 0.0
08 02:35 N 2 10.00 Fair CLR 37.4 30.2 75% 29.82 0.0
08 02:15 N 1 10.00 Fair CLR 37.4 30.2 75% 29.83 0.0
08 01:55 Calm 10.00 Fair CLR 39.2 30.2 70% 29.83 0.0
08 01:35 SW 2 10.00 Fair CLR 35.6 30.2 81% 29.83 0.0
08 01:15 N 2 10.00 Fair CLR 39.2 32 75% 29.83 0.0
08 00:55 Calm 10.00 Fair CLR 39.2 33.8 64.6 37.8 81% 29.83 0.0
08 00:35 N 2 10.00 Fair CLR 42.8 33.8 71% 29.83 0.0
08 00:15 NE 3 10.00 Fair CLR 42.8 32 66% 29.83 0.0
07 23:55 Vrbl 1 10.00 Fair CLR 41 30.2 66% 29.83 0.0
07 23:35 S 1 10.00 Fair CLR 42.8 32 66% 29.83 0.0
07 23:15 Calm 10.00 Fair CLR 42.8 28.4 57% 29.84 0.0
07 22:55 N 2 10.00 Fair CLR 44.6 28.4 53% 29.84 0.0
07 22:34 NW 1 10.00 Fair CLR 44.6 30.2 57% 29.83 0.0
07 21:55 Vrbl 1 10.00 Fair CLR 48.2 28.4 46% 29.83 0.0
07 21:35 NW 1 10.00 Fair CLR 46.4 30.2 53% 29.83 0.0
07 21:15 N 1 10.00 Fair CLR 51.8 28.4 41% 29.82 0.0
07 20:55 N 2 10.00 Fair CLR 57.2 24.8 29% 29.82 0.0
07 20:35 N 2 10.00 Fair CLR 59 23 25% 29.81 0.0
07 20:16 N 3 10.00 Fair CLR 59 24.8 27% 29.81 0.0
07 19:55 NW 7 10.00 Fair CLR 60.8 23 23% 29.8 0.0
07 19:35 NW 6 10.00 Fair CLR 62.6 23 22% 29.8 0.0
07 19:15 NW 6 10.00 Fair CLR 64.4 21.2 19% 29.8 0.0
07 18:56 NW 10 10.00 Fair CLR 64.4 23 66.4 60.4 21% 29.8 0.0
07 18:36 Vrbl 5 10.00 Fair CLR 64.4 23 21% 29.8 0.0
07 18:15 W 3 10.00 Fair CLR 64.4 24.8 22% 29.8 0.0
07 17:55 NW 3 10.00 Fair CLR 64.4 24.8 22% 29.8 0.0
07 17:35 Vrbl 6 10.00 Fair CLR 66.2 23 19% 29.8 0.0
07 17:15 Vrbl 1 10.00 Fair CLR 66.2 23 19% 29.8 0.0
07 16:55 W 9 10.00 Fair CLR 66.2 24.8 21% 29.8 0.0
07 16:35 Vrbl 3 10.00 Fair CLR 66.2 24.8 21% 29.81 0.0
07 16:15 Vrbl 6 10.00 Fair CLR 64.4 26.6 24% 29.81 0.0
07 15:55 W 3 10.00 Fair CLR 64.4 26.6 24% 29.81 0.0
07 15:35 NW 9 10.00 Fair CLR 64.4 28.4 26% 29.82 0.0
07 15:15 E 9 10.00 Fair CLR 64.4 26.6 24% 29.83 0.0
07 14:55 N 8 10.00 Fair CLR 64.4 26.6 24% 29.83 0.0
07 14:35 W 5 10.00 Fair CLR 62.6 26.6 25% 29.84 0.0
07 14:15 N 10 10.00 Fair CLR 62.6 28.4 27% 29.84 0.0
07 13:55 Vrbl 7 10.00 Fair CLR 62.6 28.4 27% 29.84 0.0
07 13:36 N 9 10.00 Fair CLR 62.6 26.6 25% 29.84 0.0
07 13:15 SW 5 10.00 Fair CLR 60.8 26.6 27% 29.84 0.0
07 12:55 N 9 10.00 Fair CLR 60.8 26.6 62.4 43.7 27% 29.85 0.0
07 12:35 Vrbl 5 10.00 Fair CLR 62.6 32 32% 29.85 0.0
07 12:15 NW 6 10.00 Fair CLR 60.8 28.4 29% 29.86 0.0
07 11:55 Vrbl 6 10.00 Fair CLR 59 28.4 31% 29.86 0.0
07 11:35 Vrbl 2 10.00 Fair CLR 59 30.2 34% 29.86 0.0
07 11:15 Vrbl 3 10.00 Fair CLR 57.2 28.4 33% 29.86 0.0
07 10:55 Vrbl 1 10.00 Fair CLR 57.2 28.4 33% 29.87 0.0
07 10:35 Vrbl 3 10.00 Fair CLR 55.4 30.2 38% 29.86 0.0
07 10:15 Vrbl 7 10.00 Fair CLR 55.4 28.4 36% 29.87 0.0
07 09:55 E 6 10.00 Fair CLR 53.6 28.4 38% 29.87 0.0
07 09:35 NE 7 10.00 Fair CLR 51.8 30.2 44% 29.88 0.0
07 09:15 Vrbl 6 10.00 Fair CLR 50 30.2 47% 48 29.88 0.0
07 08:55 NE 6 10.00 Fair CLR 48.2 28.4 46% 46 29.88 0.0
07 08:35 N 6 10.00 A Few Clouds FEW120 46.4 28.4 50% 44 29.87 0.0
07 08:15 N 6 10.00 Fair CLR 44.6 28.4 53% 42 29.87 0.0
07 07:55 N 10 10.00 A Few Clouds FEW095 44.6 26.6 49% 40 29.87 0.0
07 07:35 Vrbl 6 10.00 Partly Cloudy SCT120 46.4 28.4 50% 44 29.85 0.0
07 07:16 S 7 10.00 Partly Cloudy SCT120 46.4 28.4 50% 43 29.85 0.0
07 06:55 S 7 10.00 Partly Cloudy SCT110 48.2 30.2 53.2 38.3 50% 46 29.85 0.0
07 06:35 W 7 10.00 Overcast OVC110 51.8 28.4 41% 29.85 0.0
07 06:15 W 8 10.00 Mostly Cloudy BKN095 BKN120 51.8 28.4 41% 29.85 0.0
07 05:55 W 8 10.00 Mostly Cloudy FEW065 BKN095 53.6 26.6 35% 29.85 0.0
07 05:35 W 12 10.00 Mostly Cloudy FEW065 BKN095 BKN120 48.2 26.6 43% 44 29.86 0.0
07 05:15 Calm 10.00 Partly Cloudy SCT120 44.6 24.8 46% 29.86 0.0
07 04:55 SW 9 10.00 Mostly Cloudy FEW075 BKN090 BKN120 46.4 26.6 46% 42 29.86 0.0
07 04:35 S 8 10.00 Overcast FEW047 SCT080 OVC090 44.6 26.6 49% 41 29.86 0.0
07 04:15 S 13 10.00 Mostly Cloudy FEW043 SCT070 BKN090 46.4 24.8 43% 41 29.88 0.0
07 03:55 SW 22 10.00 Overcast and Breezy OVC100 42.8 30.2 61% 34 29.87 0.0
07 03:35 W 7 10.00 Overcast BKN100 OVC120 39.2 33.8 81% 35 29.88 0.0
07 03:15 SW 2 10.00 Overcast OVC100 39.2 30.2 70% 29.89 0.0
07 02:55 S 5 10.00 Mostly Cloudy BKN110 41 26.6 57% 38 29.89 0.0
07 02:15 S 2 10.00 Partly Cloudy SCT110 39.2 28.4 65% 29.91 0.0
07 01:55 S 2 10.00 Overcast OVC110 41 32 70% 29.93 0.0
07 01:35 S 2 10.00 Overcast OVC110 41 32 70% 29.93 0.0
07 01:16 S 3 10.00 Overcast OVC100 41 32 70% 29.94 0.0
07 00:55 S 2 10.00 Overcast OVC100 41 33.8 55.6 39.9 76% 29.94 0.0
07 00:35 S 2 10.00 Overcast OVC100 41 32 70% 29.94 0.0
07 00:15 Calm 10.00 Mostly Cloudy BKN100 42.8 32 66% 29.94 0.0
06 23:55 SW 1 10.00 Mostly Cloudy BKN100 41 33.8 76% 29.94 0.0
06 23:35 SW 2 10.00 Overcast OVC100 41 32 70% 29.95 0.0
06 23:15 SW 2 10.00 Overcast OVC100 42.8 30.2 61% 29.95 0.0
06 22:35 S 1 10.00 Overcast OVC100 42.8 26.6 53% 29.96 0.0
06 22:15 S 2 10.00 Overcast OVC100 44.6 26.6 49% 29.97 0.0
06 21:55 E 1 10.00 Overcast OVC100 46.4 26.6 46% 29.97 0.0
06 21:35 SW 2 10.00 Overcast OVC100 48.2 24.8 40% 29.97 0.0
06 20:55 W 2 10.00 Overcast OVC100 50 24.8 37% 29.97 0.0
06 20:35 W 3 10.00 Overcast OVC100 51.8 21.2 30% 29.97 0.0
06 20:15 NW 3 10.00 Mostly Cloudy BKN100 51.8 21.2 30% 29.97 0.0
06 19:55 NW 6 10.00 Mostly Cloudy BKN090 53.6 21.2 28% 29.97 0.0
06 19:35 NW 8 10.00 Overcast OVC090 53.6 21.2 28% 29.97 0.0
06 19:15 NW 12 10.00 Mostly Cloudy BKN090 53.6 21.2 28% 29.97 0.0
06 18:55 NW 9 G 20 10.00 Mostly Cloudy BKN090 55.4 21.2 56.5 49.1 26% 29.97 0.0
06 18:35 W 10 10.00 Mostly Cloudy BKN090 53.6 21.2 28% 29.98 0.0
06 18:15 NW 9 10.00 Mostly Cloudy BKN090 55.4 21.2 26% 29.98 0.0
06 17:55 W 7 10.00 Mostly Cloudy BKN090 55.4 23 28% 29.99 0.0
06 17:35 NW 12 G 18 10.00 Mostly Cloudy BKN090 55.4 23 28% 29.99 0.0
06 17:15 W 14 G 20 10.00 Overcast OVC090 55.4 24.8 31% 30 0.0
06 16:55 NW 10 10.00 Mostly Cloudy BKN090 55.4 24.8 31% 30 0.0
06 16:35 NW 14 G 22 10.00 Mostly Cloudy BKN090 53.6 23 30% 30.01 0.0
06 16:15 NW 14 10.00 Mostly Cloudy SCT080 BKN090 55.4 24.8 31% 30.01 0.0
06 15:55 W 12 G 20 10.00 Partly Cloudy SCT080 53.6 23 30% 30.01 0.0
06 15:35 NW 8 G 22 10.00 Mostly Cloudy BKN080 53.6 23 30% 30.02 0.0
06 15:15 NW 14 G 21 10.00 Mostly Cloudy BKN080 53.6 23 30% 30.03 0.0
06 14:55 NW 9 G 18 10.00 Mostly Cloudy BKN080 BKN090 53.6 26.6 35% 30.03 0.0
06 14:36 W 14 G 17 10.00 Mostly Cloudy BKN080 51.8 23 32% 30.04 0.0
06 14:15 NW 14 G 20 10.00 Mostly Cloudy BKN080 53.6 24.8 33% 30.05 0.0
06 13:56 NW 13 G 22 10.00 Mostly Cloudy BKN080 BKN085 51.8 24.8 35% 30.05 0.0
06 13:35 W 13 G 18 10.00 Overcast OVC070 51.8 23 32% 30.06 0.0
06 13:15 NW 14 G 18 10.00 Overcast OVC080 50 24.8 37% 45 30.06 0.0
06 12:55 NW 8 G 21 10.00 Mostly Cloudy BKN070 50 23 51.8 28.2 35% 47 30.07 0.0
06 12:35 NW 10 G 21 10.00 Overcast OVC070 51.8 26.6 38% 30.07 0.0
06 12:15 NW 15 G 26 10.00 Overcast OVC070 50 24.8 37% 45 30.07 0.0
06 11:55 W 9 G 20 10.00 Overcast OVC070 50 23 35% 47 30.07 0.0
06 11:35 NW 15 G 21 10.00 Overcast OVC070 48.2 23 37% 43 30.08 0.0
06 11:15 NW 10 G 17 10.00 Overcast OVC055 48.2 23 37% 44 30.07 0.0
06 10:55 NW 10 G 20 10.00 Overcast OVC055 48.2 24.8 40% 44 30.08 0.0
06 10:35 NW 10 G 16 10.00 Mostly Cloudy BKN055 BKN070 46.4 24.8 43% 42 30.08 0.0
06 10:15 NW 14 G 21 10.00 Partly Cloudy SCT055 46.4 24.8 43% 41 30.07 0.0
06 09:55 NW 12 G 18 10.00 Fair CLR 48.2 26.6 43% 44 30.08 0.0
06 09:35 NW 9 G 17 10.00 Fair CLR 46.4 26.6 46% 42 30.08 0.0
06 09:15 NW 8 10.00 Fair CLR 46.4 28.4 50% 43 30.07 0.0
06 08:55 Vrbl 1 10.00 Fair CLR 42.8 26.6 53% 30.07 0.0
06 08:35 S 3 10.00 Fair CLR 39.2 28.4 65% 30.07 0.0
06 08:15 S 3 10.00 Fair CLR 37.4 28.4 70% 30.07 0.0
06 07:55 Calm 10.00 Fair CLR 33.8 28.4 81% 30.06 0.0
06 07:35 Calm 10.00 Fair CLR 32 26.6 80% 30.06 0.0
06 07:15 SW 1 10.00 Fair CLR 30.2 26.6 86% 30.06 0.0
06 06:55 SE 2 10.00 Fair CLR 28.4 24.8 39.4 27.1 86% 30.05 0.0
Date Time (cdt) Wind (mph) Vis. (mi.) Weather Sky Cond. Air Dwpt Max. Min. Relative Humidity Wind Chill (°F) Heat Index (°F) altimeter (in) sea level (mb) 1 hr 3 hr 6 hr
6 hour
Temperature (ºF) Pressure Precipitation (in)